Time;durP1;ratioP1;P1;durP2;ratioP2;P2;SDS_P1;SDS_P2;PMS_P1;PMS_P2;Temp;Humidity;BMP_temperature;BMP_pressure;BME280_temperature;BME280_humidity;BME280_pressure;Samples;Min_cycle;Max_cycle;Signal;HPM_P1;HPM_P2
2022/11/30 00:00:10;;;;;;;22.83;16.23;;;4.50;1.00;;;;;;5048626;28;20535;-78
2022/11/30 00:02:36;;;;;;;21.03;16.10;;;4.50;1.00;;;;;;5040075;28;20209;-78
2022/11/30 00:05:02;;;;;;;24.90;16.40;;;4.50;99.90;;;;;;5048362;28;21210;-77
2022/11/30 00:07:27;;;;;;;22.40;15.70;;;4.50;14.50;;;;;;5046701;28;20210;-78
2022/11/30 00:09:53;;;;;;;22.83;15.83;;;4.50;77.10;;;;;;5049570;28;20182;-78
2022/11/30 00:12:18;;;;;;;19.90;14.57;;;4.50;1.00;;;;;;5049935;28;20193;-78
2022/11/30 00:14:44;;;;;;;21.47;15.83;;;4.50;99.90;;;;;;5047313;28;20289;-78
2022/11/30 00:17:09;;;;;;;24.27;15.67;;;4.50;99.90;;;;;;5048420;28;20186;-77
2022/11/30 00:19:35;;;;;;;21.87;15.40;;;4.40;1.00;;;;;;5047681;28;20190;-77
2022/11/30 00:22:01;;;;;;;24.00;16.67;;;4.50;99.90;;;;;;5047898;28;20182;-78
2022/11/30 00:24:26;;;;;;;24.43;15.83;;;4.50;1.00;;;;;;5047293;28;20230;-78
2022/11/30 00:26:52;;;;;;;22.13;15.23;;;4.40;1.00;;;;;;5043944;28;20230;-78
2022/11/30 00:29:17;;;;;;;25.37;16.87;;;4.50;99.90;;;;;;5046214;28;20645;-78
2022/11/30 00:31:43;;;;;;;25.00;16.80;;;4.50;99.90;;;;;;5046715;28;20190;-78
2022/11/30 00:34:08;;;;;;;23.63;15.93;;;4.50;1.00;;;;;;5046875;28;20297;-77
2022/11/30 00:36:34;;;;;;;24.07;16.33;;;4.50;1.00;;;;;;5046983;28;20693;-80
2022/11/30 00:39:00;;;;;;;26.43;16.53;;;4.60;1.00;;;;;;5049756;28;20195;-79
2022/11/30 00:41:25;;;;;;;24.60;15.87;;;4.50;1.00;;;;;;5050160;28;20190;-80
2022/11/30 00:43:51;;;;;;;25.17;15.83;;;4.50;1.00;;;;;;5049708;28;21253;-79
2022/11/30 00:46:16;;;;;;;24.17;16.27;;;4.50;1.00;;;;;;5048208;28;20210;-79
2022/11/30 00:48:42;;;;;;;25.97;17.10;;;4.50;99.90;;;;;;5048329;28;20263;-80
2022/11/30 00:51:09;;;;;;;26.33;17.93;;;4.50;99.90;;;;;;5048243;28;20190;-79
2022/11/30 00:53:35;;;;;;;27.63;18.03;;;4.50;99.90;;;;;;5049890;28;20248;-80
2022/11/30 00:56:00;;;;;;;23.63;16.57;;;4.50;99.90;;;;;;5047521;28;20194;-80
2022/11/30 00:58:26;;;;;;;26.60;17.60;;;4.50;1.00;;;;;;5049226;28;20261;-79
2022/11/30 01:00:52;;;;;;;25.00;17.40;;;4.50;1.00;;;;;;5049093;28;20678;-78
2022/11/30 01:03:18;;;;;;;25.33;16.67;;;4.50;1.00;;;;;;5047860;28;21291;-80
2022/11/30 01:05:43;;;;;;;25.33;16.70;;;4.50;1.00;;;;;;5049204;28;20230;-78
2022/11/30 01:08:10;;;;;;;23.93;16.43;;;4.50;1.00;;;;;;5049114;28;20183;-80
2022/11/30 01:10:38;;;;;;;23.73;16.13;;;4.50;1.00;;;;;;5049209;28;20182;-79
2022/11/30 01:13:04;;;;;;;27.00;16.40;;;4.50;1.00;;;;;;5049409;28;20205;-79
2022/11/30 01:15:34;;;;;;;25.70;16.63;;;4.50;99.90;;;;;;5049297;28;20275;-79
2022/11/30 01:17:59;;;;;;;25.77;16.93;;;4.50;49.20;;;;;;5049207;28;20566;-79
2022/11/30 01:20:25;;;;;;;25.77;16.37;;;4.50;99.90;;;;;;5048921;28;20274;-80
2022/11/30 01:22:51;;;;;;;25.20;16.70;;;4.50;1.00;;;;;;5048293;28;20293;-80
2022/11/30 01:25:16;;;;;;;25.40;16.33;;;4.50;1.00;;;;;;5046903;28;20202;-78
2022/11/30 01:27:42;;;;;;;24.27;16.00;;;4.50;1.00;;;;;;5046974;28;20263;-80
2022/11/30 01:30:08;;;;;;;24.83;16.20;;;4.50;1.00;;;;;;5048746;28;20178;-79
2022/11/30 01:32:34;;;;;;;26.07;16.43;;;4.40;91.60;;;;;;5048427;28;20190;-80
2022/11/30 01:34:59;;;;;;;26.10;16.40;;;4.50;99.90;;;;;;5045745;28;20183;-79
2022/11/30 01:37:27;;;;;;;26.43;16.73;;;4.50;99.90;;;;;;5048440;28;20277;-79
2022/11/30 01:39:52;;;;;;;25.90;16.33;;;4.50;99.90;;;;;;5048441;28;20621;-79
2022/11/30 01:42:20;;;;;;;26.80;16.73;;;4.50;99.90;;;;;;5047749;28;20206;-80
2022/11/30 01:44:57;;;;;;;28.27;17.40;;;4.40;99.90;;;;;;5047139;28;20185;-78
2022/11/30 01:47:30;;;;;;;26.23;16.70;;;4.50;99.90;;;;;;5046658;28;20225;-78
2022/11/30 01:50:14;;;;;;;24.80;16.20;;;4.40;99.90;;;;;;5051022;28;20186;-77
2022/11/30 01:52:43;;;;;;;26.77;15.60;;;4.40;1.00;;;;;;5057273;28;20216;-77
2022/11/30 01:55:14;;;;;;;25.37;16.33;;;4.50;1.00;;;;;;5057947;28;20174;-79
2022/11/30 01:58:02;;;;;;;24.90;16.50;;;4.60;1.00;;;;;;5057424;28;20186;-76
2022/11/30 02:00:27;;;;;;;27.73;16.73;;;4.50;1.00;;;;;;5051647;28;20186;-77
2022/11/30 02:03:10;;;;;;;23.77;15.63;;;4.50;1.00;;;;;;5059589;28;20213;-76
2022/11/30 02:05:37;;;;;;;22.73;14.87;;;4.50;1.00;;;;;;5060645;28;20213;-77
2022/11/30 02:08:04;;;;;;;22.73;15.10;;;4.50;1.00;;;;;;5061049;28;20249;-76
2022/11/30 02:10:34;;;;;;;23.00;15.77;;;4.50;1.00;;;;;;5060115;28;20183;-77
2022/11/30 02:13:22;;;;;;;23.93;16.37;;;4.50;1.00;;;;;;5060566;28;20236;-77
2022/11/30 02:16:04;;;;;;;22.07;14.40;;;4.50;99.90;;;;;;5059313;28;20190;-76
2022/11/30 02:18:52;;;;;;;22.20;15.10;;;4.50;99.90;;;;;;5061270;28;20500;-76
2022/11/30 02:21:28;;;;;;;22.67;15.43;;;4.50;99.90;;;;;;5061173;28;20201;-76
2022/11/30 02:24:13;;;;;;;22.33;15.23;;;4.60;1.00;;;;;;5061051;28;20218;-76
2022/11/30 02:27:01;;;;;;;20.97;14.70;;;4.50;99.90;;;;;;5060938;28;20194;-78
2022/11/30 02:29:36;;;;;;;22.50;14.80;;;4.50;99.90;;;;;;5054297;28;20189;-81
2022/11/30 02:32:08;;;;;;;21.10;14.60;;;4.50;37.70;;;;;;5050013;28;20186;-78
2022/11/30 02:34:36;;;;;;;24.43;15.10;;;4.50;1.00;;;;;;5048557;28;20207;-80
2022/11/30 02:37:03;;;;;;;20.43;14.60;;;4.50;1.00;;;;;;5050507;28;20257;-77
2022/11/30 02:39:29;;;;;;;24.50;15.43;;;4.50;1.20;;;;;;5059360;28;20196;-79
2022/11/30 02:41:55;;;;;;;23.53;15.97;;;4.50;99.90;;;;;;5061963;28;20194;-76
2022/11/30 02:44:22;;;;;;;22.20;15.60;;;4.50;99.90;;;;;;5047868;28;20229;-80
2022/11/30 02:50:13;;;;;;;26.27;16.07;;;4.50;1.00;;;;;;5047071;28;20270;-81
2022/11/30 02:52:39;;;;;;;24.00;15.53;;;4.50;1.00;;;;;;5048205;28;20570;-79
2022/11/30 02:55:07;;;;;;;26.30;16.10;;;4.50;1.00;;;;;;5044451;28;20217;-81
2022/11/30 02:57:34;;;;;;;25.87;16.20;;;4.50;1.00;;;;;;5045942;28;20453;-81
2022/11/30 03:00:03;;;;;;;28.20;16.43;;;4.50;1.00;;;;;;5049075;28;20273;-79
2022/11/30 03:02:28;;;;;;;26.90;16.63;;;4.50;2.80;;;;;;5046080;28;20194;-81
2022/11/30 03:04:54;;;;;;;24.43;15.20;;;4.50;99.90;;;;;;5047236;28;20568;-81
2022/11/30 03:07:19;;;;;;;25.43;15.47;;;4.50;99.90;;;;;;5049883;28;20214;-79
2022/11/30 03:09:45;;;;;;;27.23;17.03;;;4.50;99.90;;;;;;5047381;28;20277;-78
2022/11/30 03:12:11;;;;;;;27.30;17.00;;;4.60;99.90;;;;;;5046244;28;20236;-80
2022/11/30 03:14:36;;;;;;;27.57;16.47;;;4.60;1.00;;;;;;5046689;28;20184;-79
2022/11/30 03:17:02;;;;;;;28.93;16.30;;;4.60;1.00;;;;;;5047617;28;20194;-80
2022/11/30 03:19:27;;;;;;;28.67;17.33;;;4.60;1.00;;;;;;5045656;28;20721;-81
2022/11/30 03:21:53;;;;;;;26.20;16.60;;;4.60;1.00;;;;;;5047452;28;20273;-79
2022/11/30 03:24:18;;;;;;;27.37;16.93;;;4.70;1.00;;;;;;5046396;28;20237;-80
2022/11/30 03:26:44;;;;;;;29.47;17.43;;;4.60;1.00;;;;;;5047148;28;20209;-79
2022/11/30 03:29:10;;;;;;;28.83;17.03;;;4.60;1.00;;;;;;5047030;28;20670;-80
2022/11/30 03:31:35;;;;;;;30.70;17.17;;;4.50;1.00;;;;;;5047197;28;21068;-80
2022/11/30 03:34:03;;;;;;;32.23;17.50;;;4.60;1.00;;;;;;5048135;28;20214;-79
2022/11/30 03:36:29;;;;;;;28.93;17.30;;;4.60;1.00;;;;;;5052262;28;20289;-78
2022/11/30 03:38:54;;;;;;;29.07;17.70;;;4.60;1.00;;;;;;5048176;28;20265;-80
2022/11/30 03:41:20;;;;;;;25.70;16.30;;;4.60;1.00;;;;;;5046436;28;20274;-78
2022/11/30 03:43:46;;;;;;;28.67;17.47;;;4.60;81.40;;;;;;5042533;28;20217;-79
2022/11/30 03:46:12;;;;;;;34.67;18.57;;;4.60;99.90;;;;;;5034839;28;21040;-80
2022/11/30 03:48:40;;;;;;;28.13;15.80;;;4.60;73.70;;;;;;5045509;28;20186;-77
2022/11/30 03:51:06;;;;;;;31.03;17.90;;;4.60;99.90;;;;;;5044372;28;20182;-77
2022/11/30 03:53:32;;;;;;;30.07;17.47;;;4.60;1.00;;;;;;5045811;28;20208;-77
2022/11/30 03:56:01;;;;;;;29.47;17.90;;;4.60;1.00;;;;;;5043625;28;20190;-79
2022/11/30 03:58:27;;;;;;;33.70;18.33;;;4.60;1.00;;;;;;5045304;28;20194;-79
2022/11/30 04:01:22;;;;;;;30.13;17.17;;;4.70;1.00;;;;;;5045520;28;20197;-80
2022/11/30 04:03:50;;;;;;;30.07;17.47;;;4.70;1.00;;;;;;5048199;28;21117;-80
2022/11/30 04:06:16;;;;;;;32.63;18.37;;;4.70;1.00;;;;;;5049054;28;20304;-79
2022/11/30 04:08:43;;;;;;;28.37;17.13;;;4.70;1.00;;;;;;5048578;28;20187;-81
2022/11/30 04:11:09;;;;;;;29.07;17.17;;;4.80;1.00;;;;;;5046707;28;20181;-78
2022/11/30 04:13:36;;;;;;;29.50;18.03;;;4.80;99.90;;;;;;5048956;28;20216;-79
2022/11/30 04:16:03;;;;;;;30.37;17.60;;;4.70;1.00;;;;;;5047946;28;20208;-80
2022/11/30 04:18:30;;;;;;;31.10;18.10;;;4.70;99.90;;;;;;5045969;28;20268;-77
2022/11/30 04:20:58;;;;;;;30.67;17.87;;;4.80;1.00;;;;;;5046490;28;20201;-80
2022/11/30 04:23:24;;;;;;;30.77;18.50;;;4.80;99.90;;;;;;5047582;28;20222;-80
2022/11/30 04:25:50;;;;;;;31.23;18.90;;;4.80;1.00;;;;;;5047326;28;21011;-78
2022/11/30 04:28:17;;;;;;;31.73;18.90;;;4.90;99.90;;;;;;5047228;28;20184;-79
2022/11/30 04:30:44;;;;;;;29.03;17.67;;;5.00;40.80;;;;;;5048325;28;20186;-77
2022/11/30 04:33:11;;;;;;;28.10;17.60;;;5.00;1.00;;;;;;5046529;28;20273;-77
2022/11/30 04:35:47;;;;;;;29.07;17.63;;;4.70;1.00;;;;;;5046366;28;20198;-81
2022/11/30 04:38:13;;;;;;;30.47;16.77;;;4.70;99.90;;;;;;5047947;28;20186;-79
2022/11/30 04:40:40;;;;;;;29.63;17.17;;;4.70;99.90;;;;;;5046329;28;20197;-78
2022/11/30 04:43:06;;;;;;;32.17;18.23;;;4.70;99.90;;;;;;5048032;28;20734;-80
2022/11/30 04:45:31;;;;;;;27.80;17.30;;;4.70;99.90;;;;;;5063299;28;20194;-82
2022/11/30 04:47:57;;;;;;;29.60;17.13;;;4.70;1.00;;;;;;5046572;28;20245;-79
2022/11/30 04:50:23;;;;;;;28.67;17.17;;;4.70;1.00;;;;;;5049049;28;20174;-78
2022/11/30 04:52:48;;;;;;;29.77;17.63;;;4.70;1.00;;;;;;5048818;28;20209;-77
2022/11/30 04:55:18;;;;;;;27.83;17.43;;;4.70;1.00;;;;;;5043152;28;20180;-79
2022/11/30 04:57:46;;;;;;;29.43;17.70;;;4.70;48.70;;;;;;5046084;28;20197;-78
2022/11/30 05:00:14;;;;;;;32.50;19.13;;;4.70;99.90;;;;;;5047575;28;20187;-81
2022/11/30 05:02:40;;;;;;;26.37;16.43;;;4.70;99.90;;;;;;5047511;28;20221;-78
2022/11/30 05:05:06;;;;;;;27.33;16.90;;;4.70;99.90;;;;;;5046482;28;20549;-78
2022/11/30 05:07:31;;;;;;;25.43;16.37;;;4.70;99.90;;;;;;5047203;28;20257;-81
2022/11/30 05:09:57;;;;;;;24.57;15.90;;;4.70;99.90;;;;;;5047748;28;20193;-79
2022/11/30 05:12:22;;;;;;;23.53;15.43;;;4.70;99.90;;;;;;5045241;28;20178;-79
2022/11/30 05:14:48;;;;;;;25.63;16.33;;;4.80;1.00;;;;;;5047723;28;20186;-78
2022/11/30 05:17:13;;;;;;;19.87;14.37;;;4.80;99.90;;;;;;5047559;28;20186;-78
2022/11/30 05:19:39;;;;;;;24.80;15.37;;;4.80;99.90;;;;;;5043877;28;20186;-79
2022/11/30 05:22:05;;;;;;;23.53;15.03;;;4.80;1.00;;;;;;5046991;28;20586;-81
2022/11/30 05:24:30;;;;;;;22.60;16.03;;;4.80;1.00;;;;;;5046041;28;20217;-77
2022/11/30 05:26:56;;;;;;;21.60;15.97;;;4.80;1.00;;;;;;5046445;28;20671;-81
2022/11/30 05:29:22;;;;;;;23.40;16.10;;;4.90;53.00;;;;;;5046259;28;20251;-78
2022/11/30 05:31:47;;;;;;;22.07;15.33;;;5.00;1.00;;;;;;5046223;28;20185;-77
2022/11/30 05:34:13;;;;;;;21.30;14.57;;;5.00;99.90;;;;;;5046768;28;20698;-77
2022/11/30 05:36:38;;;;;;;21.87;15.93;;;5.00;99.90;;;;;;5046939;28;21270;-81
2022/11/30 05:39:04;;;;;;;21.47;14.43;;;4.90;1.00;;;;;;5046361;28;20650;-80
2022/11/30 05:41:30;;;;;;;20.10;14.67;;;4.80;1.00;;;;;;5061700;28;20182;-79
2022/11/30 05:43:56;;;;;;;24.13;16.53;;;4.80;1.00;;;;;;5046549;28;20213;-80
2022/11/30 05:46:22;;;;;;;23.00;15.60;;;4.80;99.90;;;;;;5046153;28;20206;-81
2022/11/30 05:48:47;;;;;;;21.37;15.60;;;4.80;99.90;;;;;;5044352;28;20848;-78
2022/11/30 05:51:15;;;;;;;21.63;16.00;;;4.90;1.00;;;;;;5042413;28;20815;-79
2022/11/30 05:53:42;;;;;;;22.53;15.97;;;4.70;1.00;;;;;;5045024;28;20297;-79
2022/11/30 05:56:14;;;;;;;23.53;16.10;;;4.70;99.90;;;;;;5042064;28;20229;-78
2022/11/30 05:58:40;;;;;;;21.43;15.83;;;4.70;1.00;;;;;;5046083;28;20190;-78
2022/11/30 06:01:06;;;;;;;21.40;15.77;;;4.70;1.00;;;;;;5046726;28;20284;-78
2022/11/30 06:03:33;;;;;;;21.90;15.03;;;4.80;1.00;;;;;;5047019;28;20309;-80
2022/11/30 06:05:59;;;;;;;20.77;15.10;;;4.70;1.00;;;;;;5046009;28;20198;-79
2022/11/30 06:08:25;;;;;;;22.83;16.13;;;4.70;99.90;;;;;;5047283;28;20249;-81
2022/11/30 06:10:51;;;;;;;20.97;14.83;;;4.70;99.90;;;;;;5046047;28;20193;-77
2022/11/30 06:13:16;;;;;;;19.30;14.53;;;5.50;99.90;;;;;;5045586;28;20203;-77
2022/11/30 06:15:42;;;;;;;21.70;15.37;;;4.80;99.90;;;;;;5045666;28;20190;-80
2022/11/30 06:18:11;;;;;;;21.13;14.53;;;4.80;99.90;;;;;;5043216;28;20641;-77
2022/11/30 06:20:37;;;;;;;22.37;15.47;;;4.80;99.90;;;;;;5046617;28;20181;-79
2022/11/30 06:23:03;;;;;;;19.27;14.57;;;4.80;99.90;;;;;;5048147;28;20289;-78
2022/11/30 06:25:29;;;;;;;20.10;14.47;;;4.80;99.90;;;;;;5036563;28;20731;-80
2022/11/30 06:27:55;;;;;;;20.93;14.63;;;4.80;99.90;;;;;;5042935;28;20797;-78
2022/11/30 06:30:21;;;;;;;20.40;14.80;;;4.80;99.90;;;;;;5044484;28;20214;-79
2022/11/30 06:32:48;;;;;;;21.57;14.43;;;4.80;99.90;;;;;;5046153;28;20206;-78
2022/11/30 06:35:14;;;;;;;21.43;15.17;;;4.80;99.90;;;;;;5046049;28;20166;-80
2022/11/30 06:37:40;;;;;;;21.13;14.00;;;4.80;99.90;;;;;;5045093;28;20190;-79
2022/11/30 06:40:07;;;;;;;23.17;15.03;;;4.80;99.90;;;;;;5044931;28;20240;-79
2022/11/30 06:42:33;;;;;;;23.40;15.47;;;4.80;99.90;;;;;;5044811;28;20210;-79
2022/11/30 06:44:59;;;;;;;22.77;15.13;;;4.80;1.00;;;;;;5043789;28;20260;-78
2022/11/30 06:47:26;;;;;;;23.70;15.40;;;4.80;1.00;;;;;;5044131;28;20344;-79
2022/11/30 06:49:53;;;;;;;22.97;14.73;;;4.80;1.00;;;;;;5045808;28;20200;-79
2022/11/30 06:52:19;;;;;;;21.93;15.37;;;4.80;1.00;;;;;;5045210;28;20178;-78
2022/11/30 06:54:44;;;;;;;24.93;16.53;;;4.80;1.00;;;;;;5040237;28;20282;-78
2022/11/30 06:57:10;;;;;;;25.13;16.33;;;4.80;1.00;;;;;;5045742;28;20206;-78
2022/11/30 06:59:36;;;;;;;24.13;16.67;;;4.90;1.00;;;;;;5044555;28;20674;-78
2022/11/30 07:02:02;;;;;;;28.67;17.30;;;4.90;1.00;;;;;;5045948;28;20697;-79
2022/11/30 07:04:28;;;;;;;24.97;16.10;;;4.90;1.00;;;;;;5045173;28;20864;-78
2022/11/30 07:06:54;;;;;;;31.03;19.37;;;5.00;1.00;;;;;;5044757;28;20845;-80
2022/11/30 07:09:19;;;;;;;33.33;20.10;;;5.10;1.00;;;;;;5044054;28;20197;-78
2022/11/30 07:11:45;;;;;;;28.47;17.53;;;5.10;99.90;;;;;;5044309;28;20667;-80
2022/11/30 07:14:10;;;;;;;25.87;16.93;;;5.10;99.90;;;;;;5045490;28;20190;-79
2022/11/30 07:16:36;;;;;;;29.67;18.70;;;5.10;99.90;;;;;;5044803;28;20192;-79
2022/11/30 07:19:02;;;;;;;28.37;17.20;;;5.10;1.00;;;;;;5043506;28;20188;-79
2022/11/30 07:21:28;;;;;;;28.90;18.40;;;5.10;1.00;;;;;;5042785;28;20268;-79
2022/11/30 07:26:38;;;;;;;31.43;19.57;;;5.20;1.00;;;;;;5042730;28;20817;-79
2022/11/30 07:29:04;;;;;;;32.40;19.70;;;5.20;99.90;;;;;;5044285;28;20269;-80
2022/11/30 07:31:33;;;;;;;32.20;20.23;;;5.10;99.90;;;;;;5044989;28;20174;-79
2022/11/30 07:34:06;;;;;;;34.47;20.60;;;5.10;1.00;;;;;;5046554;28;20240;-80
2022/11/30 07:36:32;;;;;;;32.10;21.03;;;5.20;1.00;;;;;;5049569;28;20185;-79
2022/11/30 07:38:58;;;;;;;30.20;19.20;;;5.10;1.00;;;;;;5050030;28;20266;-79
2022/11/30 07:41:24;;;;;;;32.73;20.40;;;5.10;99.90;;;;;;5050562;28;20314;-77
2022/11/30 07:43:49;;;;;;;32.30;20.63;;;5.10;99.90;;;;;;5049944;28;20209;-78
2022/11/30 07:46:16;;;;;;;36.57;24.00;;;5.20;99.90;;;;;;5049847;28;20218;-78
2022/11/30 07:48:43;;;;;;;34.83;22.40;;;5.20;99.90;;;;;;5046924;28;20209;-79
2022/11/30 07:51:17;;;;;;;35.33;23.47;;;5.20;99.90;;;;;;5045247;28;20194;-77
2022/11/30 07:53:42;;;;;;;34.57;23.47;;;5.20;1.00;;;;;;5044279;28;20292;-78
2022/11/30 07:56:19;;;;;;;32.83;21.30;;;5.30;99.90;;;;;;5034170;28;20957;-78
2022/11/30 07:58:45;;;;;;;28.40;20.13;;;5.20;99.90;;;;;;5042726;28;20228;-79
2022/11/30 08:01:13;;;;;;;30.87;20.23;;;5.20;99.90;;;;;;5043143;28;20190;-78
2022/11/30 08:03:39;;;;;;;29.23;19.20;;;5.20;99.90;;;;;;5037781;28;20245;-78
2022/11/30 08:06:08;;;;;;;25.47;18.17;;;5.20;99.90;;;;;;5045372;28;20210;-76
2022/11/30 08:08:36;;;;;;;26.90;18.70;;;5.30;1.00;;;;;;5044477;28;20191;-77
2022/11/30 08:11:03;;;;;;;27.77;18.50;;;5.40;1.00;;;;;;5042074;28;20267;-79
2022/11/30 08:13:28;;;;;;;24.33;17.87;;;5.40;99.90;;;;;;5044939;28;20206;-76
2022/11/30 08:15:54;;;;;;;25.37;17.63;;;5.40;1.00;;;;;;5045201;28;20197;-77
2022/11/30 08:18:20;;;;;;;28.70;20.43;;;5.40;99.90;;;;;;5046574;28;20193;-79
2022/11/30 08:20:46;;;;;;;23.47;17.53;;;5.40;99.90;;;;;;5046524;28;20264;-79
2022/11/30 08:23:12;;;;;;;25.67;18.67;;;5.40;1.00;;;;;;5043944;28;20363;-77
2022/11/30 08:25:38;;;;;;;30.23;20.33;;;5.30;1.00;;;;;;5043704;28;20194;-79
2022/11/30 08:28:04;;;;;;;28.57;20.23;;;5.40;1.00;;;;;;5043754;28;20214;-79
2022/11/30 08:30:29;;;;;;;23.37;17.43;;;5.40;1.00;;;;;;5044565;28;20190;-78
2022/11/30 08:32:56;;;;;;;25.30;18.03;;;5.40;1.00;;;;;;5041529;28;20259;-81
2022/11/30 08:35:22;;;;;;;28.40;18.33;;;5.50;99.90;;;;;;5042817;28;20669;-77
2022/11/30 08:37:47;;;;;;;27.70;18.37;;;5.50;99.90;;;;;;5043123;28;20198;-81
2022/11/30 08:40:13;;;;;;;24.97;18.17;;;5.50;99.90;;;;;;5040317;28;20273;-77
2022/11/30 08:42:39;;;;;;;29.07;21.30;;;5.50;1.00;;;;;;5040802;28;20210;-80
2022/11/30 08:45:05;;;;;;;27.57;18.33;;;5.60;1.00;;;;;;5045281;28;20186;-77
2022/11/30 08:47:31;;;;;;;25.77;18.20;;;5.60;1.00;;;;;;5035317;28;20225;-79
2022/11/30 08:49:57;;;;;;;26.53;18.97;;;5.60;1.00;;;;;;5037976;28;21236;-79
2022/11/30 08:52:23;;;;;;;25.20;18.67;;;5.60;1.00;;;;;;5037880;28;20235;-79
2022/11/30 08:54:49;;;;;;;30.17;22.13;;;5.50;1.00;;;;;;5044539;28;20778;-80
2022/11/30 08:57:17;;;;;;;27.60;20.40;;;5.60;1.00;;;;;;5043915;28;20221;-78
2022/11/30 08:59:43;;;;;;;92.50;74.60;;;5.60;1.00;;;;;;5044140;28;20201;-78
2022/11/30 09:02:10;;;;;;;44.17;36.03;;;6.40;1.00;;;;;;5041647;28;20186;-77
2022/11/30 09:04:35;;;;;;;54.60;42.17;;;5.70;99.90;;;;;;5043825;28;20259;-77
2022/11/30 09:07:02;;;;;;;30.23;22.13;;;5.60;99.90;;;;;;5043594;28;20680;-78
2022/11/30 09:09:28;;;;;;;27.90;20.73;;;5.60;99.90;;;;;;5043684;28;20809;-80
2022/11/30 09:11:54;;;;;;;40.07;33.67;;;5.60;99.90;;;;;;5039438;28;20209;-79
2022/11/30 09:14:20;;;;;;;27.87;21.00;;;5.60;99.90;;;;;;5043629;28;20210;-81
2022/11/30 09:16:45;;;;;;;24.17;19.63;;;5.70;99.90;;;;;;5037093;28;20668;-79
2022/11/30 09:19:11;;;;;;;24.70;19.27;;;5.60;99.90;;;;;;5042778;28;20186;-79
2022/11/30 09:21:36;;;;;;;21.67;17.20;;;5.60;99.90;;;;;;5042703;28;20186;-80
2022/11/30 09:24:02;;;;;;;21.77;16.40;;;5.60;99.90;;;;;;5033029;28;20731;-79
2022/11/30 09:26:28;;;;;;;34.97;27.27;;;5.70;99.90;;;;;;5044299;28;20229;-78
2022/11/30 09:28:54;;;;;;;27.17;22.03;;;6.30;99.90;;;;;;5045110;28;20236;-78
2022/11/30 09:31:22;;;;;;;25.63;20.50;;;5.70;99.90;;;;;;5044559;28;20190;-80
2022/11/30 09:33:48;;;;;;;27.23;21.40;;;5.80;99.90;;;;;;5043871;28;20234;-77
2022/11/30 09:36:16;;;;;;;27.43;21.33;;;6.30;99.90;;;;;;5040008;28;20228;-78
2022/11/30 09:38:42;;;;;;;21.27;16.90;;;5.80;94.00;;;;;;5044977;28;20217;-78
2022/11/30 09:41:43;;;;;;;29.20;21.00;;;5.80;91.60;;;;;;5043922;28;20220;-82
2022/11/30 09:44:37;;;;;;;20.67;17.10;;;5.80;46.00;;;;;;5042810;28;20210;-78
2022/11/30 09:47:31;;;;;;;22.23;16.57;;;5.80;72.00;;;;;;5041914;28;20217;-77
2022/11/30 09:50:00;;;;;;;21.50;17.07;;;5.90;96.70;;;;;;5042526;28;20566;-78
2022/11/30 09:52:33;;;;;;;22.03;17.57;;;6.00;76.30;;;;;;5043744;28;20182;-79
2022/11/30 09:55:05;;;;;;;23.07;16.97;;;6.00;42.20;;;;;;5046260;28;20186;-80
2022/11/30 09:57:45;;;;;;;22.30;15.63;;;5.90;58.40;;;;;;5045488;28;20217;-78
2022/11/30 10:00:15;;;;;;;22.63;17.60;;;5.90;72.10;;;;;;5035034;28;20182;-77
2022/11/30 10:02:42;;;;;;;22.73;16.27;;;5.90;99.90;;;;;;5035622;28;20214;-79
2022/11/30 10:05:20;;;;;;;22.50;16.23;;;5.80;99.90;;;;;;5044518;28;20216;-78
2022/11/30 10:08:08;;;;;;;20.53;15.50;;;5.80;99.90;;;;;;5043506;28;20252;-77
2022/11/30 10:11:01;;;;;;;24.77;18.40;;;5.90;69.80;;;;;;5043392;28;20197;-77
2022/11/30 10:13:57;;;;;;;25.23;18.70;;;5.90;1.00;;;;;;5045582;28;20213;-77
2022/11/30 10:16:51;;;;;;;27.73;20.10;;;6.00;34.80;;;;;;5046031;28;20256;-80
2022/11/30 10:19:35;;;;;;;27.00;19.57;;;6.00;10.30;;;;;;5044350;28;20526;-81
2022/11/30 10:22:22;;;;;;;28.33;20.30;;;6.00;1.00;;;;;;5045995;28;20309;-80
2022/11/30 10:25:11;;;;;;;27.57;20.23;;;6.00;1.00;;;;;;5043100;28;20224;-80
2022/11/30 10:27:52;;;;;;;28.07;20.23;;;6.00;1.00;;;;;;5042423;28;20304;-80
2022/11/30 10:30:23;;;;;;;30.53;20.17;;;6.00;1.00;;;;;;5044460;28;20663;-81
2022/11/30 10:32:54;;;;;;;28.47;19.07;;;5.90;1.00;;;;;;5042511;28;20237;-81
2022/11/30 10:35:39;;;;;;;24.07;17.97;;;5.90;1.00;;;;;;5043771;28;20269;-79
2022/11/30 10:38:18;;;;;;;25.10;18.77;;;5.90;7.40;;;;;;5043873;28;20186;-79
2022/11/30 10:41:02;;;;;;;26.53;18.73;;;5.90;1.00;;;;;;5042340;28;20190;-79
2022/11/30 10:43:37;;;;;;;25.47;19.50;;;6.30;1.00;;;;;;5043454;28;20246;-77
2022/11/30 10:46:04;;;;;;;25.73;18.60;;;5.90;1.00;;;;;;5044791;28;20197;-79
2022/11/30 10:48:48;;;;;;;27.20;18.87;;;5.90;1.00;;;;;;5045630;28;20228;-81
2022/11/30 10:51:14;;;;;;;23.83;18.00;;;5.90;1.00;;;;;;5045891;28;20705;-79
2022/11/30 10:53:40;;;;;;;31.57;20.00;;;5.90;1.00;;;;;;5040722;28;20206;-79
2022/11/30 10:56:09;;;;;;;31.07;22.87;;;5.90;1.00;;;;;;5040693;28;20244;-78
2022/11/30 10:58:37;;;;;;;55.30;34.87;;;5.90;1.00;;;;;;5040544;28;20186;-78
2022/11/30 11:01:27;;;;;;;83.10;51.20;;;6.10;73.30;;;;;;5040075;28;20769;-79
2022/11/30 11:04:09;;;;;;;96.50;55.23;;;5.90;99.70;;;;;;5041914;28;20198;-78
2022/11/30 11:06:39;;;;;;;53.47;33.20;;;6.00;1.00;;;;;;5042377;28;20226;-80
2022/11/30 11:09:45;;;;;;;99.93;56.53;;;6.00;1.00;;;;;;5040163;28;20381;-79
2022/11/30 11:12:24;;;;;;;56.33;34.83;;;5.90;1.00;;;;;;5045532;28;20189;-79
2022/11/30 11:15:09;;;;;;;46.40;27.43;;;6.00;1.00;;;;;;5043939;28;20287;-78
2022/11/30 11:17:34;;;;;;;78.00;42.40;;;5.90;17.30;;;;;;5046920;28;20189;-78
2022/11/30 11:20:00;;;;;;;52.47;31.40;;;5.90;62.90;;;;;;5047322;28;20201;-76
2022/11/30 11:22:29;;;;;;;58.10;33.67;;;5.90;86.70;;;;;;5046672;28;20194;-79
2022/11/30 11:25:15;;;;;;;63.63;35.43;;;5.90;1.00;;;;;;5045486;28;20201;-80
2022/11/30 11:27:40;;;;;;;73.27;37.90;;;5.90;45.10;;;;;;5045343;28;20213;-79
2022/11/30 11:30:16;;;;;;;74.07;36.57;;;5.90;99.90;;;;;;5047490;28;20189;-79
2022/11/30 11:32:58;;;;;;;89.07;38.53;;;5.90;99.90;;;;;;5046575;28;20886;-80
2022/11/30 11:35:51;;;;;;;106.93;44.80;;;5.80;99.90;;;;;;5046329;28;20208;-80
2022/11/30 11:38:31;;;;;;;111.07;47.63;;;5.90;34.30;;;;;;5044864;28;20190;-78
2022/11/30 11:41:10;;;;;;;126.37;51.37;;;5.90;1.00;;;;;;5046590;28;20193;-77
2022/11/30 11:44:00;;;;;;;72.87;38.23;;;6.10;1.00;;;;;;5046453;28;20206;-81
2022/11/30 11:46:26;;;;;;;92.53;44.53;;;5.90;1.00;;;;;;5046807;28;20214;-80
2022/11/30 11:48:56;;;;;;;106.70;46.90;;;5.90;1.00;;;;;;5047614;28;20191;-81
2022/11/30 11:51:36;;;;;;;101.73;45.43;;;6.00;1.00;;;;;;5047047;28;20219;-81
2022/11/30 11:54:26;;;;;;;121.47;56.63;;;6.70;1.00;;;;;;5048589;28;20202;-80
2022/11/30 11:56:55;;;;;;;81.30;41.20;;;6.00;1.00;;;;;;5047050;28;20193;-79
2022/11/30 11:59:39;;;;;;;76.63;41.83;;;6.00;1.00;;;;;;5046145;28;20190;-80
2022/11/30 12:02:32;;;;;;;82.57;45.80;;;5.90;1.00;;;;;;5040386;28;20193;-80
2022/11/30 12:05:32;;;;;;;134.07;72.97;;;6.00;1.00;;;;;;5044594;28;20193;-78
2022/11/30 12:08:16;;;;;;;222.27;124.57;;;5.90;1.00;;;;;;5041837;28;20245;-81
2022/11/30 12:10:46;;;;;;;139.90;76.83;;;5.90;1.00;;;;;;5042048;28;20217;-78
2022/11/30 12:13:18;;;;;;;109.20;65.97;;;5.90;1.00;;;;;;5042784;28;20464;-80
2022/11/30 12:16:18;;;;;;;99.27;72.73;;;6.00;1.00;;;;;;5041940;28;20186;-81
2022/11/30 12:19:12;;;;;;;73.10;44.63;;;6.00;1.00;;;;;;5048320;28;20178;-80
2022/11/30 12:21:50;;;;;;;68.63;44.80;;;5.90;1.00;;;;;;5046838;28;20182;-77
2022/11/30 12:24:48;;;;;;;83.33;55.17;;;5.90;1.00;;;;;;5048818;28;20222;-78
2022/11/30 12:27:33;;;;;;;67.17;43.97;;;5.90;1.00;;;;;;5045903;28;20206;-78
2022/11/30 12:30:17;;;;;;;64.53;42.43;;;5.90;1.00;;;;;;5046487;28;20190;-79
2022/11/30 12:33:20;;;;;;;78.63;51.67;;;5.80;1.00;;;;;;5049021;28;20206;-78
2022/11/30 12:35:58;;;;;;;73.27;45.63;;;6.20;1.00;;;;;;5055201;28;20190;-79
2022/11/30 12:38:55;;;;;;;67.90;43.80;;;5.90;1.00;;;;;;5044017;28;20243;-79
2022/11/30 12:41:45;;;;;;;63.20;40.43;;;5.90;1.00;;;;;;5043343;28;20190;-78
2022/11/30 12:44:48;;;;;;;80.90;48.90;;;5.90;1.00;;;;;;5042255;28;20202;-80
2022/11/30 12:47:34;;;;;;;64.87;41.23;;;5.90;1.00;;;;;;5038981;28;20257;-78
2022/11/30 12:50:30;;;;;;;60.57;39.30;;;5.90;1.00;;;;;;5041789;28;20289;-78
2022/11/30 12:53:41;;;;;;;67.03;40.97;;;5.90;1.00;;;;;;5033393;28;20595;-79
2022/11/30 12:56:33;;;;;;;74.83;44.13;;;5.90;1.00;;;;;;5046404;28;20251;-78
2022/11/30 12:59:11;;;;;;;59.20;38.07;;;5.90;1.00;;;;;;5043944;28;20217;-78
2022/11/30 13:01:45;;;;;;;56.73;37.50;;;6.00;1.00;;;;;;5043059;28;20236;-79
2022/11/30 13:04:39;;;;;;;70.40;44.53;;;5.90;1.00;;;;;;5043795;28;20683;-78
2022/11/30 13:07:15;;;;;;;62.57;38.87;;;5.90;99.90;;;;;;5043385;28;20214;-79